createdAt,value
2019-04-16T00:00:24.915Z,4.53
2019-04-16T00:02:59.931Z,4.40
2019-04-16T00:05:28.974Z,4.35
2019-04-16T00:07:57.992Z,4.60
2019-04-16T00:10:32.946Z,4.37
2019-04-16T00:13:02.111Z,4.80
2019-04-16T00:15:29.390Z,4.10
2019-04-16T00:17:56.659Z,4.65
2019-04-16T00:20:23.908Z,4.83
2019-04-16T00:23:04.908Z,4.70
2019-04-16T00:25:32.128Z,4.50
2019-04-16T00:28:00.210Z,4.45
2019-04-16T00:30:28.511Z,4.83
2019-04-16T00:32:55.851Z,4.83
2019-04-16T00:35:23.046Z,5.00
2019-04-16T00:37:51.665Z,4.62
2019-04-16T00:40:19.596Z,5.50
2019-04-16T00:42:46.848Z,5.78
2019-04-16T00:45:14.142Z,5.72
2019-04-16T00:47:41.404Z,5.80
2019-04-16T00:50:08.633Z,7.12
2019-04-16T00:52:37.699Z,6.80
2019-04-16T00:55:04.957Z,7.20
2019-04-16T00:57:32.193Z,7.85
2019-04-16T00:59:59.540Z,7.05
2019-04-16T01:02:26.763Z,6.50
2019-04-16T01:04:53.989Z,6.53
2019-04-16T01:07:21.288Z,5.80
2019-04-16T01:09:48.520Z,6.05
2019-04-16T01:12:15.742Z,6.47
2019-04-16T01:14:43.002Z,5.70
2019-04-16T01:17:10.213Z,6.47
2019-04-16T01:19:40.742Z,5.37
2019-04-16T01:22:06.635Z,5.72
2019-04-16T01:24:33.886Z,6.35
2019-04-16T01:27:01.113Z,6.03
2019-04-16T01:29:28.496Z,5.85
2019-04-16T01:32:14.510Z,6.62
2019-04-16T01:34:43.597Z,6.22
2019-04-16T01:37:16.013Z,6.60
2019-04-16T01:39:47.441Z,7.12
2019-04-16T01:42:14.103Z,7.78
2019-04-16T01:44:42.945Z,8.48
2019-04-16T01:47:10.397Z,7.55
2019-04-16T01:49:39.308Z,7.92
2019-04-16T01:55:36.565Z,7.37
2019-04-16T01:58:03.973Z,8.70
2019-04-16T02:00:57.933Z,7.95
2019-04-16T02:03:25.155Z,7.35
2019-04-16T02:05:54.844Z,6.53
2019-04-16T02:08:21.429Z,6.62
2019-04-16T02:10:48.655Z,5.83
2019-04-16T02:13:15.988Z,6.40
2019-04-16T02:15:43.565Z,7.08
2019-04-16T02:18:10.787Z,6.25
2019-04-16T02:20:39.326Z,5.78
2019-04-16T02:23:06.897Z,5.83
2019-04-16T02:25:34.130Z,5.90
2019-04-16T02:28:02.356Z,5.90
2019-04-16T02:30:29.802Z,5.90
2019-04-16T02:32:58.665Z,6.10
2019-04-16T02:35:25.906Z,5.05
2019-04-16T02:37:53.166Z,6.20
2019-04-16T02:40:20.916Z,6.03
2019-04-16T02:42:48.128Z,7.00
2019-04-16T02:45:15.435Z,6.80
2019-04-16T02:47:42.740Z,6.50
2019-04-16T02:50:11.774Z,6.50
2019-04-16T02:52:50.390Z,6.83
2019-04-16T02:55:23.906Z,6.85
2019-04-16T02:58:03.600Z,7.12
2019-04-16T03:00:36.308Z,4.80
2019-04-16T03:03:05.589Z,6.70
2019-04-16T03:05:37.455Z,6.67
2019-04-16T03:08:06.006Z,6.70
2019-04-16T03:10:34.848Z,6.22
2019-04-16T03:13:02.088Z,6.37
2019-04-16T03:15:43.181Z,7.47
2019-04-16T03:20:40.932Z,7.45
2019-04-16T03:23:08.283Z,7.58
2019-04-16T03:25:35.464Z,8.65
2019-04-16T03:28:02.854Z,8.45
2019-04-16T03:30:30.426Z,11.18
2019-04-16T03:32:57.619Z,12.43
2019-04-16T03:35:26.619Z,10.03
2019-04-16T03:37:53.931Z,10.95
2019-04-16T03:40:24.886Z,10.03
2019-04-16T03:42:50.179Z,9.85
2019-04-16T03:45:17.455Z,11.80
2019-04-16T03:47:44.686Z,11.63
2019-04-16T03:50:11.905Z,10.68
2019-04-16T03:52:40.852Z,16.45
2019-04-16T03:55:08.277Z,23.77
2019-04-16T03:57:35.494Z,21.00
2019-04-16T04:00:04.346Z,15.15
2019-04-16T04:02:31.587Z,14.78
2019-04-16T04:05:01.692Z,15.53
2019-04-16T04:07:27.870Z,12.80
2019-04-16T04:09:55.596Z,13.20
2019-04-16T04:12:24.122Z,15.35
2019-04-16T04:14:54.289Z,21.15
2019-04-16T04:17:21.539Z,17.70
2019-04-16T04:19:48.759Z,15.13
2019-04-16T04:22:16.041Z,15.20
2019-04-16T04:24:43.265Z,13.80
2019-04-16T04:27:14.271Z,12.33
2019-04-16T04:29:39.601Z,16.00
2019-04-16T04:32:06.969Z,13.30
2019-04-16T04:34:34.147Z,12.37
2019-04-16T04:37:02.005Z,13.22
2019-04-16T04:39:29.223Z,14.55
2019-04-16T04:41:57.228Z,14.83
2019-04-16T04:44:24.719Z,15.78
2019-04-16T04:46:51.947Z,14.98
2019-04-16T04:49:19.190Z,15.05
2019-04-16T04:51:46.486Z,14.13
2019-04-16T04:54:13.784Z,12.65
2019-04-16T04:56:41.050Z,12.03
2019-04-16T04:59:09.257Z,11.78
2019-04-16T05:01:38.197Z,11.95
2019-04-16T05:04:07.703Z,10.45
2019-04-16T05:06:42.599Z,10.38
2019-04-16T05:09:09.806Z,9.35
2019-04-16T05:11:37.025Z,9.43
2019-04-16T05:14:04.292Z,9.00
2019-04-16T05:16:34.265Z,8.83
2019-04-16T05:19:00.587Z,15.00
2019-04-16T05:21:27.862Z,14.38
2019-04-16T05:23:57.590Z,14.50
2019-04-16T05:26:24.112Z,16.17
2019-04-16T05:28:51.369Z,10.80
2019-04-16T05:31:18.677Z,10.15
2019-04-16T05:33:45.882Z,10.53
2019-04-16T05:36:14.295Z,9.60
2019-04-16T05:38:42.205Z,9.00
2019-04-16T05:41:13.515Z,8.85
2019-04-16T05:43:38.500Z,8.70
2019-04-16T05:46:08.821Z,8.20
2019-04-16T05:48:34.774Z,9.43
2019-04-16T05:51:02.077Z,9.33
2019-04-16T05:53:29.285Z,8.75
2019-04-16T05:55:58.322Z,8.45
2019-04-16T05:58:27.821Z,8.35
2019-04-16T06:01:02.137Z,7.58
2019-04-16T06:03:30.215Z,9.13
2019-04-16T06:05:59.382Z,8.98
2019-04-16T06:08:26.469Z,9.00
2019-04-16T06:10:53.763Z,10.38
2019-04-16T06:13:28.278Z,10.15
2019-04-16T06:16:13.892Z,8.63
2019-04-16T06:19:01.085Z,8.18
2019-04-16T06:21:30.160Z,8.23
2019-04-16T06:24:03.116Z,7.58
2019-04-16T06:26:44.384Z,7.53
2019-04-16T06:29:19.481Z,6.72
2019-04-16T06:31:48.538Z,6.00
2019-04-16T06:34:23.691Z,5.17
2019-04-16T06:36:54.997Z,5.78
2019-04-16T06:39:26.551Z,6.08
2019-04-16T06:41:54.921Z,7.37
2019-04-16T06:44:23.966Z,7.05
2019-04-16T06:47:01.935Z,9.10
2019-04-16T06:49:39.410Z,5.85
2019-04-16T06:52:07.636Z,7.03
2019-04-16T06:54:45.307Z,9.93
2019-04-16T06:57:13.391Z,6.20
2019-04-16T06:59:45.411Z,6.60
2019-04-16T07:02:30.837Z,5.40
2019-04-16T07:05:01.185Z,6.42
2019-04-16T07:10:16.509Z,4.58
2019-04-16T07:12:43.776Z,4.10
2019-04-16T07:15:12.032Z,4.33
2019-04-16T07:17:40.615Z,4.95
2019-04-16T07:20:13.061Z,4.20
2019-04-16T07:22:38.071Z,5.37
2019-04-16T07:25:06.308Z,4.37
2019-04-16T07:27:39.078Z,4.85
2019-04-16T07:30:09.249Z,4.53
2019-04-16T07:32:47.767Z,4.50
2019-04-16T07:35:27.206Z,3.62
2019-04-16T07:38:11.511Z,3.98
2019-04-16T07:40:56.251Z,4.70
2019-04-16T07:43:41.690Z,5.00
2019-04-16T07:46:27.295Z,3.37
2019-04-16T07:49:01.116Z,3.15
2019-04-16T07:51:30.113Z,3.85
2019-04-16T07:54:13.870Z,4.10
2019-04-16T07:56:42.896Z,3.70
2019-04-16T07:59:10.107Z,2.95
2019-04-16T08:01:37.963Z,3.30
2019-04-16T08:04:05.175Z,3.15
2019-04-16T08:06:33.242Z,2.87
2019-04-16T08:09:00.518Z,3.62
2019-04-16T08:11:27.727Z,3.08
2019-04-16T08:13:54.948Z,3.92
2019-04-16T08:16:22.205Z,3.62
2019-04-16T08:18:50.230Z,3.75
2019-04-16T08:21:17.446Z,3.90
2019-04-16T08:23:51.507Z,4.42
2019-04-16T08:26:15.515Z,4.65
2019-04-16T08:28:42.760Z,4.65
2019-04-16T08:31:12.896Z,5.17
2019-04-16T08:33:40.654Z,4.35
2019-04-16T08:36:08.261Z,5.05
2019-04-16T08:38:35.614Z,6.17
2019-04-16T08:41:03.952Z,10.28
2019-04-16T08:43:31.219Z,5.08
2019-04-16T08:45:58.530Z,4.78
2019-04-16T08:48:25.769Z,6.60
2019-04-16T08:50:57.924Z,5.17
2019-04-16T08:53:22.062Z,5.80
2019-04-16T08:55:49.279Z,9.45
2019-04-16T08:58:16.488Z,7.25
2019-04-16T09:00:46.567Z,7.47
2019-04-16T09:03:15.458Z,4.78
2019-04-16T09:05:42.925Z,5.08
2019-04-16T09:08:21.839Z,4.47
2019-04-16T09:10:45.995Z,6.20
2019-04-16T09:13:18.108Z,4.90
2019-04-16T09:15:45.335Z,4.45
2019-04-16T09:18:30.169Z,4.58
2019-04-16T09:20:57.394Z,4.67
2019-04-16T09:23:26.583Z,4.05
2019-04-16T09:26:12.482Z,3.90
2019-04-16T09:28:31.068Z,4.45
2019-04-16T09:31:05.735Z,5.72
2019-04-16T09:33:53.259Z,5.42
2019-04-16T09:36:28.354Z,4.70
2019-04-16T09:38:57.354Z,5.12
2019-04-16T09:41:26.451Z,6.12
2019-04-16T09:43:57.184Z,5.83
2019-04-16T09:46:49.067Z,6.78
2019-04-16T09:48:53.570Z,4.90
2019-04-16T09:51:21.186Z,5.20
2019-04-16T09:53:48.752Z,4.45
2019-04-16T09:56:30.059Z,4.62
2019-04-16T09:59:07.342Z,5.22
2019-04-16T10:01:36.444Z,5.62
2019-04-16T10:04:04.636Z,5.37
2019-04-16T10:06:31.867Z,5.30
2019-04-16T10:08:59.361Z,5.33
2019-04-16T10:11:26.753Z,4.90
2019-04-16T10:13:54.492Z,5.05
2019-04-16T10:16:23.680Z,6.83
2019-04-16T10:18:50.919Z,8.60
2019-04-16T10:21:20.087Z,6.55
2019-04-16T10:24:03.852Z,7.40
2019-04-16T10:26:31.075Z,7.40
2019-04-16T10:29:00.114Z,6.17
2019-04-16T10:31:27.388Z,5.97
2019-04-16T10:33:54.621Z,5.80
2019-04-16T10:36:22.382Z,8.53
2019-04-16T10:39:06.555Z,9.23
2019-04-16T10:41:39.299Z,6.67
2019-04-16T10:44:11.704Z,7.17
2019-04-16T10:46:43.654Z,5.90
2019-04-16T10:49:12.711Z,7.70
2019-04-16T10:51:47.521Z,7.95
2019-04-16T10:54:25.395Z,10.58
2019-04-16T10:57:10.853Z,6.92
2019-04-16T10:59:39.933Z,5.97
2019-04-16T11:02:11.968Z,5.25
2019-04-16T11:04:43.213Z,7.72
2019-04-16T11:07:12.652Z,7.95
2019-04-16T11:09:40.363Z,7.47
2019-04-16T11:12:07.712Z,10.20
2019-04-16T11:14:34.906Z,7.92
2019-04-16T11:17:02.246Z,9.93
2019-04-16T11:19:30.677Z,8.10
2019-04-16T11:21:59.935Z,14.98
2019-04-16T11:24:27.221Z,12.50
2019-04-16T11:26:54.487Z,13.60
2019-04-16T11:29:21.690Z,20.25
2019-04-16T11:31:48.896Z,7.50
2019-04-16T11:34:17.291Z,7.08
2019-04-16T11:36:44.508Z,10.48
2019-04-16T11:39:11.835Z,18.67
2019-04-16T11:41:39.198Z,12.33
2019-04-16T11:44:15.088Z,12.88
2019-04-16T11:46:36.513Z,7.47
2019-04-16T11:49:03.810Z,8.48
2019-04-16T11:51:31.100Z,11.38
2019-04-16T11:53:58.356Z,18.80
2019-04-16T11:56:25.659Z,28.40
2019-04-16T11:58:52.949Z,12.13
2019-04-16T12:01:27.920Z,19.87
2019-04-16T12:03:56.924Z,13.00
2019-04-16T12:06:31.939Z,22.13
2019-04-16T12:09:16.007Z,21.17
2019-04-16T12:11:45.523Z,24.20
2019-04-16T12:14:29.589Z,23.50
2019-04-16T12:17:03.368Z,13.18
2019-04-16T12:19:32.392Z,12.40
2019-04-16T12:22:16.592Z,14.45
2019-04-16T12:24:48.369Z,13.38
2019-04-16T12:27:36.213Z,8.35
2019-04-16T12:30:16.122Z,8.03
2019-04-16T12:32:45.237Z,6.28
2019-04-16T12:35:31.045Z,7.30
2019-04-16T12:38:13.153Z,9.20
2019-04-16T12:40:58.092Z,16.70
2019-04-16T12:43:27.196Z,9.80
2019-04-16T12:46:14.395Z,15.75
2019-04-16T12:48:46.372Z,13.65
2019-04-16T12:51:18.679Z,13.15
2019-04-16T12:53:54.237Z,10.63
2019-04-16T12:56:41.351Z,8.90
2019-04-16T12:59:14.756Z,10.53
2019-04-16T13:01:49.546Z,11.55
2019-04-16T13:04:33.648Z,9.58
2019-04-16T13:07:08.625Z,13.00
2019-04-16T13:09:43.653Z,14.70
2019-04-16T13:12:32.549Z,9.85
2019-04-16T13:15:19.026Z,8.13
2019-04-16T13:18:06.244Z,7.97
2019-04-16T13:20:44.234Z,7.17
2019-04-16T13:23:19.045Z,5.90
2019-04-16T13:25:48.141Z,6.58
2019-04-16T13:28:15.348Z,7.50
2019-04-16T13:30:42.576Z,7.28
2019-04-16T13:33:10.081Z,7.22
2019-04-16T13:35:37.398Z,7.17
2019-04-16T13:38:08.200Z,8.20
2019-04-16T13:40:34.633Z,5.78
2019-04-16T13:43:05.587Z,6.47
2019-04-16T13:45:32.685Z,7.17
2019-04-16T13:48:14.463Z,7.35
2019-04-16T13:50:41.091Z,7.50
2019-04-16T13:53:13.676Z,7.67
2019-04-16T13:55:44.582Z,7.70
2019-04-16T13:58:13.791Z,8.38
2019-04-16T14:00:59.457Z,8.70
2019-04-16T14:03:26.748Z,8.15
2019-04-16T14:05:55.636Z,7.17
2019-04-16T14:08:22.857Z,7.45
2019-04-16T14:10:50.330Z,7.30
2019-04-16T14:13:19.592Z,7.80
2019-04-16T14:15:46.829Z,7.30
2019-04-16T14:18:14.512Z,8.25
2019-04-16T14:20:41.746Z,8.80
2019-04-16T14:23:08.980Z,7.22
2019-04-16T14:25:36.266Z,6.92
2019-04-16T14:28:03.733Z,7.62
2019-04-16T14:30:33.209Z,8.13
2019-04-16T14:33:00.461Z,17.12
2019-04-16T14:35:33.291Z,14.80
2019-04-16T14:37:58.529Z,15.85
2019-04-16T14:40:25.822Z,15.85
2019-04-16T14:42:57.372Z,52.27
2019-04-16T14:45:57.062Z,10.90
2019-04-16T14:48:12.090Z,7.33
2019-04-16T14:50:39.374Z,7.15
2019-04-16T14:53:06.633Z,6.05
2019-04-16T14:55:35.681Z,7.70
2019-04-16T14:58:22.908Z,6.22
2019-04-16T15:01:00.792Z,8.75
2019-04-16T15:03:29.957Z,6.78
2019-04-16T15:06:11.177Z,10.82
2019-04-16T15:11:35.858Z,19.17
2019-04-16T15:14:08.524Z,12.50
2019-04-16T15:16:46.176Z,17.92
2019-04-16T15:19:30.158Z,11.30
2019-04-16T15:22:18.291Z,14.40
2019-04-16T15:24:47.409Z,8.33
2019-04-16T15:27:16.494Z,10.93
2019-04-16T15:29:45.851Z,15.78
2019-04-16T15:32:34.053Z,18.27
2019-04-16T15:35:00.701Z,13.85
2019-04-16T15:37:36.004Z,11.97
2019-04-16T15:40:08.335Z,15.50
2019-04-16T15:42:48.430Z,10.30
2019-04-16T15:45:19.940Z,10.40
2019-04-16T15:47:51.619Z,13.98
2019-04-16T15:50:23.483Z,13.58
2019-04-16T15:52:52.900Z,18.80
2019-04-16T15:55:24.422Z,26.77
2019-04-16T15:58:09.737Z,22.50
2019-04-16T16:00:55.394Z,17.00
2019-04-16T16:03:27.214Z,24.00
2019-04-16T16:05:56.217Z,19.90
2019-04-16T16:08:26.983Z,23.20
2019-04-16T16:10:56.130Z,21.40
2019-04-16T16:13:26.436Z,23.50
2019-04-16T16:15:54.453Z,15.58
2019-04-16T16:18:21.699Z,26.87
2019-04-16T16:20:49.209Z,20.43
2019-04-16T16:23:16.552Z,18.27
2019-04-16T16:25:43.825Z,38.90
2019-04-16T16:28:11.045Z,45.00
2019-04-16T16:30:38.260Z,39.40
2019-04-16T16:33:05.539Z,33.25
2019-04-16T16:35:34.810Z,45.12
2019-04-16T16:38:01.939Z,37.17
2019-04-16T16:40:29.219Z,24.30
2019-04-16T16:42:56.447Z,19.95
2019-04-16T16:45:27.120Z,23.00
2019-04-16T16:47:54.395Z,17.90
2019-04-16T16:50:21.572Z,13.18
2019-04-16T16:52:50.634Z,19.60
2019-04-16T16:55:20.213Z,28.70
2019-04-16T16:57:56.713Z,18.92
2019-04-16T17:00:36.604Z,28.60
2019-04-16T17:03:23.860Z,25.43
2019-04-16T17:05:54.014Z,15.30
2019-04-16T17:08:27.054Z,18.23
2019-04-16T17:10:57.012Z,19.95
2019-04-16T17:13:25.801Z,21.42
2019-04-16T17:15:55.595Z,19.95
2019-04-16T17:18:26.563Z,20.70
2019-04-16T17:20:53.957Z,22.00
2019-04-16T17:23:21.257Z,22.02
2019-04-16T17:25:48.626Z,22.62
2019-04-16T17:28:15.864Z,21.68
2019-04-16T17:30:47.811Z,23.90
2019-04-16T17:33:18.233Z,34.23
2019-04-16T17:35:48.854Z,35.60
2019-04-16T17:38:19.114Z,78.95
2019-04-16T17:40:51.125Z,128.32
2019-04-16T17:43:42.126Z,67.47
2019-04-16T17:46:28.456Z,46.60
2019-04-16T17:49:01.269Z,43.55
2019-04-16T17:51:37.083Z,64.90
2019-04-16T17:54:08.125Z,66.82
2019-04-16T17:56:51.852Z,53.42
2019-04-16T17:59:29.083Z,51.13
2019-04-16T18:01:59.126Z,51.10
2019-04-16T18:04:32.311Z,55.85
2019-04-16T18:07:08.454Z,57.03
2019-04-16T18:09:38.133Z,52.58
2019-04-16T18:12:09.143Z,41.60
2019-04-16T18:14:56.463Z,38.67
2019-04-16T18:17:47.294Z,36.77
2019-04-16T18:20:29.849Z,31.62
2019-04-16T18:22:59.584Z,31.10
2019-04-16T18:25:55.562Z,34.73
2019-04-16T18:28:18.615Z,36.45
2019-04-16T18:30:52.094Z,40.43
2019-04-16T18:33:21.629Z,42.13
2019-04-16T18:36:06.205Z,40.52
2019-04-16T18:38:42.016Z,43.83
2019-04-16T18:41:29.432Z,46.90
2019-04-16T18:43:59.793Z,51.35
2019-04-16T18:46:45.323Z,51.10
2019-04-16T18:49:19.686Z,48.80
2019-04-16T18:51:50.305Z,48.95
2019-04-16T18:54:19.503Z,47.58
2019-04-16T18:56:49.190Z,46.70
2019-04-16T18:59:19.072Z,45.12
2019-04-16T19:01:48.078Z,48.83
2019-04-16T19:04:15.351Z,54.53
2019-04-16T19:06:42.618Z,57.67
2019-04-16T19:09:09.840Z,59.27
2019-04-16T19:11:37.942Z,57.33
2019-04-16T19:14:05.233Z,51.90
2019-04-16T19:16:32.460Z,52.15
2019-04-16T19:18:59.782Z,53.85
2019-04-16T19:21:27.351Z,52.65
2019-04-16T19:23:54.625Z,49.42
2019-04-16T19:26:21.856Z,43.13
2019-04-16T19:28:49.369Z,42.62
2019-04-16T19:31:16.670Z,47.10
2019-04-16T19:33:43.899Z,44.15
2019-04-16T19:36:11.179Z,36.63
2019-04-16T19:38:39.356Z,32.78
2019-04-16T19:41:07.568Z,33.05
2019-04-16T19:43:35.687Z,38.83
2019-04-16T19:46:04.348Z,47.67
2019-04-16T19:48:35.977Z,49.42
2019-04-16T19:51:00.875Z,50.28
2019-04-16T19:53:28.084Z,48.50
2019-04-16T19:55:55.606Z,46.37
2019-04-16T19:58:23.363Z,44.60
2019-04-16T20:00:53.607Z,41.42
2019-04-16T20:03:19.874Z,42.00
2019-04-16T20:05:47.130Z,38.17
2019-04-16T20:08:14.350Z,34.40
2019-04-16T20:10:41.630Z,38.83
2019-04-16T20:13:10.171Z,40.50
2019-04-16T20:15:37.363Z,40.85
2019-04-16T20:18:06.589Z,53.60
2019-04-16T20:20:33.719Z,95.53
2019-04-16T20:23:02.475Z,61.85
2019-04-16T20:25:29.740Z,54.75
2019-04-16T20:27:57.074Z,48.35
2019-04-16T20:30:24.477Z,41.23
2019-04-16T20:32:51.799Z,41.68
2019-04-16T20:35:19.233Z,44.33
2019-04-16T20:37:46.506Z,41.77
2019-04-16T20:40:14.594Z,45.65
2019-04-16T20:42:42.897Z,47.27
2019-04-16T20:45:10.227Z,46.08
2019-04-16T20:47:39.972Z,46.33
2019-04-16T20:50:06.597Z,47.48
2019-04-16T20:52:35.103Z,46.18
2019-04-16T20:55:03.444Z,43.23
2019-04-16T20:57:30.826Z,44.58
2019-04-16T20:59:58.121Z,47.45
2019-04-16T21:02:27.169Z,50.95
2019-04-16T21:04:54.516Z,53.92
2019-04-16T21:07:23.557Z,53.58
2019-04-16T21:09:50.772Z,56.85
2019-04-16T21:12:18.125Z,48.73
2019-04-16T21:14:45.369Z,47.50
2019-04-16T21:17:12.632Z,45.33
2019-04-16T21:19:47.619Z,43.20
2019-04-16T21:22:15.772Z,40.58
2019-04-16T21:24:43.577Z,43.30
2019-04-16T21:27:10.954Z,43.90
2019-04-16T21:29:38.240Z,49.40
2019-04-16T21:32:10.283Z,54.75
2019-04-16T21:34:43.908Z,58.42
2019-04-16T21:37:15.701Z,53.87
2019-04-16T21:40:03.202Z,46.20
2019-04-16T21:42:34.470Z,45.20
2019-04-16T21:44:59.524Z,46.58
2019-04-16T21:47:46.570Z,43.95
2019-04-16T21:50:16.328Z,33.60
2019-04-16T21:52:42.859Z,33.20
2019-04-16T21:55:10.532Z,25.00
2019-04-16T21:57:37.761Z,20.80
2019-04-16T22:00:09.604Z,20.88
2019-04-16T22:02:40.425Z,22.85
2019-04-16T22:05:08.920Z,22.70
2019-04-16T22:07:36.228Z,26.10
2019-04-16T22:10:04.001Z,26.50
2019-04-16T22:12:31.364Z,24.67
2019-04-16T22:14:58.625Z,27.30
2019-04-16T22:17:25.863Z,29.23
2019-04-16T22:20:00.615Z,28.15
2019-04-16T22:22:25.616Z,29.50
2019-04-16T22:24:55.042Z,28.00
2019-04-16T22:27:21.601Z,26.87
2019-04-16T22:29:49.922Z,28.85
2019-04-16T22:32:17.154Z,26.25
2019-04-16T22:34:44.388Z,25.10
2019-04-16T22:37:11.682Z,27.20
2019-04-16T22:39:40.688Z,23.95
2019-04-16T22:42:09.838Z,27.02
2019-04-16T22:44:55.543Z,24.77
2019-04-16T22:47:27.340Z,26.20
2019-04-16T22:50:00.633Z,27.27
2019-04-16T22:52:23.681Z,28.85
2019-04-16T22:54:52.983Z,28.05
2019-04-16T22:57:19.966Z,28.52
2019-04-16T22:59:47.224Z,28.45
2019-04-16T23:02:22.194Z,28.25
2019-04-16T23:04:49.447Z,28.27
2019-04-16T23:07:16.682Z,28.80
2019-04-16T23:09:45.818Z,27.52
2019-04-16T23:12:13.046Z,28.12
2019-04-16T23:14:40.282Z,26.68
2019-04-16T23:17:13.463Z,27.90
2019-04-16T23:19:36.807Z,28.77
2019-04-16T23:22:04.242Z,28.20
2019-04-16T23:24:31.504Z,26.57
2019-04-16T23:27:04.174Z,27.17
2019-04-16T23:29:29.388Z,26.23
2019-04-16T23:31:56.693Z,26.75
2019-04-16T23:34:23.877Z,27.07
2019-04-16T23:36:51.121Z,26.57
2019-04-16T23:39:18.407Z,26.57
2019-04-16T23:41:48.247Z,25.17
2019-04-16T23:44:28.428Z,23.62
2019-04-16T23:47:03.202Z,24.82
2019-04-16T23:49:48.669Z,23.62
2019-04-16T23:52:20.591Z,23.62
2019-04-16T23:55:05.998Z,22.95
2019-04-16T23:57:37.515Z,23.10
